sensor_id;sensor_type;location;lat;lon;timestamp;P1;durP1;ratioP1;P2;durP2;ratioP2
21099;SDS011;10708;50.824;4.408;2022-08-11T00:05:05;3.85;;;2.72;;
21099;SDS011;10708;50.824;4.408;2022-08-11T00:10:13;3.85;;;2.95;;
21099;SDS011;10708;50.824;4.408;2022-08-11T00:15:17;6.25;;;2.70;;
21099;SDS011;10708;50.824;4.408;2022-08-11T00:20:27;9.43;;;2.63;;
21099;SDS011;10708;50.824;4.408;2022-08-11T00:25:36;3.67;;;2.50;;
21099;SDS011;10708;50.824;4.408;2022-08-11T00:30:39;3.38;;;2.20;;
21099;SDS011;10708;50.824;4.408;2022-08-11T00:35:43;5.72;;;2.70;;
21099;SDS011;10708;50.824;4.408;2022-08-11T00:40:50;5.20;;;2.67;;
21099;SDS011;10708;50.824;4.408;2022-08-11T00:46:08;2.88;;;2.50;;
21099;SDS011;10708;50.824;4.408;2022-08-11T00:51:19;4.47;;;2.90;;
21099;SDS011;10708;50.824;4.408;2022-08-11T00:56:46;7.47;;;3.05;;
21099;SDS011;10708;50.824;4.408;2022-08-11T01:02:24;7.10;;;2.88;;
21099;SDS011;10708;50.824;4.408;2022-08-11T01:13:35;6.35;;;2.80;;
21099;SDS011;10708;50.824;4.408;2022-08-11T01:41:45;3.47;;;2.90;;
21099;SDS011;10708;50.824;4.408;2022-08-11T01:47:22;5.43;;;2.90;;
21099;SDS011;10708;50.824;4.408;2022-08-11T01:53:02;4.82;;;2.55;;
21099;SDS011;10708;50.824;4.408;2022-08-11T01:58:12;7.38;;;2.95;;
21099;SDS011;10708;50.824;4.408;2022-08-11T02:03:23;4.95;;;3.33;;
21099;SDS011;10708;50.824;4.408;2022-08-11T02:08:44;5.30;;;2.85;;
21099;SDS011;10708;50.824;4.408;2022-08-11T02:13:52;3.92;;;3.00;;
21099;SDS011;10708;50.824;4.408;2022-08-11T02:19:04;5.03;;;2.90;;
21099;SDS011;10708;50.824;4.408;2022-08-11T02:24:39;3.78;;;2.97;;
21099;SDS011;10708;50.824;4.408;2022-08-11T02:29:54;4.65;;;3.05;;
21099;SDS011;10708;50.824;4.408;2022-08-11T02:35:11;8.25;;;3.30;;
21099;SDS011;10708;50.824;4.408;2022-08-11T02:40:26;3.58;;;3.00;;
21099;SDS011;10708;50.824;4.408;2022-08-11T02:45:48;4.72;;;3.13;;
21099;SDS011;10708;50.824;4.408;2022-08-11T02:51:01;5.13;;;3.08;;
21099;SDS011;10708;50.824;4.408;2022-08-11T02:56:20;4.00;;;3.22;;
21099;SDS011;10708;50.824;4.408;2022-08-11T03:01:30;7.68;;;3.10;;
21099;SDS011;10708;50.824;4.408;2022-08-11T03:06:46;5.72;;;3.30;;
21099;SDS011;10708;50.824;4.408;2022-08-11T03:11:56;4.28;;;3.00;;
21099;SDS011;10708;50.824;4.408;2022-08-11T03:17:27;6.53;;;3.42;;
21099;SDS011;10708;50.824;4.408;2022-08-11T03:22:32;4.35;;;3.33;;
21099;SDS011;10708;50.824;4.408;2022-08-11T03:27:44;5.72;;;3.20;;
21099;SDS011;10708;50.824;4.408;2022-08-11T03:32:55;6.00;;;2.95;;
21099;SDS011;10708;50.824;4.408;2022-08-11T03:38:25;6.53;;;3.20;;
21099;SDS011;10708;50.824;4.408;2022-08-11T03:43:53;6.13;;;3.40;;
21099;SDS011;10708;50.824;4.408;2022-08-11T03:49:06;4.13;;;3.03;;
21099;SDS011;10708;50.824;4.408;2022-08-11T03:54:24;5.43;;;3.50;;
21099;SDS011;10708;50.824;4.408;2022-08-11T03:59:52;4.85;;;3.20;;
21099;SDS011;10708;50.824;4.408;2022-08-11T04:05:25;4.13;;;3.22;;
21099;SDS011;10708;50.824;4.408;2022-08-11T04:11:09;6.22;;;3.38;;
21099;SDS011;10708;50.824;4.408;2022-08-11T04:16:32;5.28;;;3.53;;
21099;SDS011;10708;50.824;4.408;2022-08-11T04:27:25;6.13;;;3.58;;
21099;SDS011;10708;50.824;4.408;2022-08-11T04:49:39;7.97;;;3.45;;
21099;SDS011;10708;50.824;4.408;2022-08-11T04:55:27;6.35;;;3.60;;
21099;SDS011;10708;50.824;4.408;2022-08-11T05:01:05;6.38;;;3.45;;
21099;SDS011;10708;50.824;4.408;2022-08-11T05:12:18;5.88;;;3.63;;
21099;SDS011;10708;50.824;4.408;2022-08-11T05:17:33;6.10;;;3.67;;
21099;SDS011;10708;50.824;4.408;2022-08-11T05:23:00;6.47;;;3.58;;
21099;SDS011;10708;50.824;4.408;2022-08-11T05:28:27;6.25;;;4.00;;
21099;SDS011;10708;50.824;4.408;2022-08-11T05:33:53;8.60;;;3.85;;
21099;SDS011;10708;50.824;4.408;2022-08-11T05:39:19;10.20;;;4.00;;
21099;SDS011;10708;50.824;4.408;2022-08-11T05:44:43;6.65;;;3.95;;
21099;SDS011;10708;50.824;4.408;2022-08-11T05:50:05;9.05;;;4.22;;
21099;SDS011;10708;50.824;4.408;2022-08-11T05:55:32;12.85;;;3.95;;
21099;SDS011;10708;50.824;4.408;2022-08-11T06:00:57;8.48;;;4.10;;
21099;SDS011;10708;50.824;4.408;2022-08-11T06:06:00;5.65;;;3.53;;
21099;SDS011;10708;50.824;4.408;2022-08-11T06:11:11;7.20;;;3.45;;
21099;SDS011;10708;50.824;4.408;2022-08-11T06:16:14;5.15;;;3.70;;
21099;SDS011;10708;50.824;4.408;2022-08-11T06:21:23;7.07;;;3.95;;
21099;SDS011;10708;50.824;4.408;2022-08-11T06:26:29;6.18;;;4.00;;
21099;SDS011;10708;50.824;4.408;2022-08-11T06:31:32;8.18;;;3.88;;
21099;SDS011;10708;50.824;4.408;2022-08-11T06:36:37;8.30;;;3.88;;
21099;SDS011;10708;50.824;4.408;2022-08-11T06:41:50;10.50;;;3.67;;
21099;SDS011;10708;50.824;4.408;2022-08-11T06:47:03;8.90;;;4.05;;
21099;SDS011;10708;50.824;4.408;2022-08-11T06:52:08;7.55;;;3.67;;
21099;SDS011;10708;50.824;4.408;2022-08-11T06:57:15;6.10;;;3.85;;
21099;SDS011;10708;50.824;4.408;2022-08-11T07:02:42;9.43;;;3.80;;
21099;SDS011;10708;50.824;4.408;2022-08-11T07:07:58;6.90;;;3.75;;
21099;SDS011;10708;50.824;4.408;2022-08-11T07:13:43;6.25;;;3.38;;
21099;SDS011;10708;50.824;4.408;2022-08-11T07:19:04;5.47;;;3.53;;
21099;SDS011;10708;50.824;4.408;2022-08-11T07:24:26;7.22;;;3.80;;
21099;SDS011;10708;50.824;4.408;2022-08-11T07:29:51;6.00;;;3.47;;
21099;SDS011;10708;50.824;4.408;2022-08-11T07:34:58;6.03;;;3.50;;
21099;SDS011;10708;50.824;4.408;2022-08-11T07:40:09;5.22;;;3.45;;
21099;SDS011;10708;50.824;4.408;2022-08-11T07:45:13;5.75;;;3.28;;
21099;SDS011;10708;50.824;4.408;2022-08-11T07:50:33;5.05;;;3.33;;
21099;SDS011;10708;50.824;4.408;2022-08-11T07:55:54;5.47;;;3.83;;
21099;SDS011;10708;50.824;4.408;2022-08-11T08:01:00;5.65;;;3.35;;
21099;SDS011;10708;50.824;4.408;2022-08-11T08:06:20;5.65;;;3.40;;
21099;SDS011;10708;50.824;4.408;2022-08-11T08:11:41;5.40;;;3.13;;
21099;SDS011;10708;50.824;4.408;2022-08-11T08:17:04;5.75;;;3.05;;
21099;SDS011;10708;50.824;4.408;2022-08-11T08:22:27;5.50;;;3.30;;
21099;SDS011;10708;50.824;4.408;2022-08-11T08:27:29;5.45;;;3.30;;
21099;SDS011;10708;50.824;4.408;2022-08-11T08:32:36;7.53;;;3.30;;
21099;SDS011;10708;50.824;4.408;2022-08-11T08:37:39;6.55;;;3.10;;
21099;SDS011;10708;50.824;4.408;2022-08-11T08:42:45;3.97;;;3.10;;
21099;SDS011;10708;50.824;4.408;2022-08-11T08:47:54;4.82;;;3.00;;
21099;SDS011;10708;50.824;4.408;2022-08-11T08:53:02;6.88;;;2.97;;
21099;SDS011;10708;50.824;4.408;2022-08-11T08:58:06;5.68;;;3.65;;
21099;SDS011;10708;50.824;4.408;2022-08-11T09:03:10;5.57;;;2.72;;
21099;SDS011;10708;50.824;4.408;2022-08-11T09:08:15;5.60;;;2.97;;
21099;SDS011;10708;50.824;4.408;2022-08-11T09:13:19;4.28;;;3.20;;
21099;SDS011;10708;50.824;4.408;2022-08-11T09:18:23;6.18;;;3.60;;
21099;SDS011;10708;50.824;4.408;2022-08-11T09:23:25;7.78;;;3.03;;
21099;SDS011;10708;50.824;4.408;2022-08-11T09:28:45;3.63;;;3.30;;
21099;SDS011;10708;50.824;4.408;2022-08-11T09:33:51;5.28;;;3.45;;
21099;SDS011;10708;50.824;4.408;2022-08-11T09:38:55;4.85;;;3.42;;
21099;SDS011;10708;50.824;4.408;2022-08-11T09:44:16;5.50;;;3.35;;
21099;SDS011;10708;50.824;4.408;2022-08-11T09:49:40;5.75;;;3.33;;
21099;SDS011;10708;50.824;4.408;2022-08-11T09:54:44;10.10;;;3.85;;
21099;SDS011;10708;50.824;4.408;2022-08-11T09:59:48;5.85;;;3.20;;
21099;SDS011;10708;50.824;4.408;2022-08-11T10:04:55;5.32;;;3.47;;
21099;SDS011;10708;50.824;4.408;2022-08-11T10:10:19;9.30;;;3.85;;
21099;SDS011;10708;50.824;4.408;2022-08-11T10:15:23;5.05;;;3.53;;
21099;SDS011;10708;50.824;4.408;2022-08-11T10:20:39;4.70;;;3.50;;
21099;SDS011;10708;50.824;4.408;2022-08-11T10:25:42;4.93;;;3.30;;
21099;SDS011;10708;50.824;4.408;2022-08-11T10:31:03;4.47;;;3.35;;
21099;SDS011;10708;50.824;4.408;2022-08-11T10:36:33;6.63;;;3.63;;
21099;SDS011;10708;50.824;4.408;2022-08-11T10:41:42;5.40;;;3.00;;
21099;SDS011;10708;50.824;4.408;2022-08-11T10:47:03;4.18;;;3.22;;
21099;SDS011;10708;50.824;4.408;2022-08-11T10:52:25;6.07;;;3.65;;
21099;SDS011;10708;50.824;4.408;2022-08-11T10:57:46;6.78;;;3.78;;
21099;SDS011;10708;50.824;4.408;2022-08-11T11:03:05;8.18;;;3.60;;
21099;SDS011;10708;50.824;4.408;2022-08-11T11:08:10;7.40;;;3.40;;
21099;SDS011;10708;50.824;4.408;2022-08-11T11:13:29;5.72;;;3.20;;
21099;SDS011;10708;50.824;4.408;2022-08-11T11:18:51;7.55;;;3.17;;
21099;SDS011;10708;50.824;4.408;2022-08-11T11:23:59;7.53;;;3.42;;
21099;SDS011;10708;50.824;4.408;2022-08-11T11:29:19;7.40;;;3.42;;
21099;SDS011;10708;50.824;4.408;2022-08-11T11:40:19;8.57;;;3.28;;
21099;SDS011;10708;50.824;4.408;2022-08-11T11:45:23;3.42;;;2.97;;
21099;SDS011;10708;50.824;4.408;2022-08-11T11:50:26;5.32;;;3.33;;
21099;SDS011;10708;50.824;4.408;2022-08-11T11:55:32;4.60;;;3.08;;
21099;SDS011;10708;50.824;4.408;2022-08-11T12:00:35;3.45;;;3.15;;
21099;SDS011;10708;50.824;4.408;2022-08-11T12:05:55;4.75;;;2.95;;
21099;SDS011;10708;50.824;4.408;2022-08-11T12:11:01;3.90;;;3.10;;
21099;SDS011;10708;50.824;4.408;2022-08-11T12:16:22;2.97;;;2.67;;
21099;SDS011;10708;50.824;4.408;2022-08-11T12:21:25;5.40;;;3.38;;
21099;SDS011;10708;50.824;4.408;2022-08-11T12:26:30;6.18;;;3.20;;
21099;SDS011;10708;50.824;4.408;2022-08-11T12:31:54;7.63;;;3.03;;
21099;SDS011;10708;50.824;4.408;2022-08-11T12:36:58;4.32;;;3.70;;
21099;SDS011;10708;50.824;4.408;2022-08-11T12:42:06;3.38;;;3.08;;
21099;SDS011;10708;50.824;4.408;2022-08-11T12:47:27;6.18;;;2.85;;
21099;SDS011;10708;50.824;4.408;2022-08-11T12:52:53;4.15;;;3.05;;
21099;SDS011;10708;50.824;4.408;2022-08-11T12:57:59;7.10;;;2.70;;
21099;SDS011;10708;50.824;4.408;2022-08-11T13:03:18;6.47;;;2.65;;
21099;SDS011;10708;50.824;4.408;2022-08-11T13:08:39;5.70;;;2.78;;
21099;SDS011;10708;50.824;4.408;2022-08-11T13:13:44;6.15;;;2.92;;
21099;SDS011;10708;50.824;4.408;2022-08-11T13:18:48;5.80;;;2.67;;
21099;SDS011;10708;50.824;4.408;2022-08-11T13:23:51;6.22;;;2.90;;
21099;SDS011;10708;50.824;4.408;2022-08-11T13:28:57;6.07;;;3.38;;
21099;SDS011;10708;50.824;4.408;2022-08-11T13:33:59;5.03;;;3.10;;
21099;SDS011;10708;50.824;4.408;2022-08-11T13:39:02;8.18;;;3.15;;
21099;SDS011;10708;50.824;4.408;2022-08-11T13:44:08;4.45;;;2.50;;
21099;SDS011;10708;50.824;4.408;2022-08-11T13:49:13;3.78;;;3.30;;
21099;SDS011;10708;50.824;4.408;2022-08-11T13:54:18;3.20;;;2.88;;
21099;SDS011;10708;50.824;4.408;2022-08-11T13:59:24;5.03;;;2.97;;
21099;SDS011;10708;50.824;4.408;2022-08-11T14:04:29;3.83;;;2.90;;
21099;SDS011;10708;50.824;4.408;2022-08-11T14:09:35;4.18;;;3.10;;
21099;SDS011;10708;50.824;4.408;2022-08-11T14:14:41;5.20;;;3.22;;
21099;SDS011;10708;50.824;4.408;2022-08-11T14:19:50;5.80;;;3.22;;
21099;SDS011;10708;50.824;4.408;2022-08-11T14:24:53;6.18;;;3.03;;
21099;SDS011;10708;50.824;4.408;2022-08-11T14:29:59;5.47;;;3.13;;
21099;SDS011;10708;50.824;4.408;2022-08-11T14:35:02;4.45;;;3.33;;
21099;SDS011;10708;50.824;4.408;2022-08-11T14:40:07;5.28;;;3.35;;
21099;SDS011;10708;50.824;4.408;2022-08-11T14:45:31;4.00;;;2.88;;
21099;SDS011;10708;50.824;4.408;2022-08-11T14:50:52;4.70;;;2.70;;
21099;SDS011;10708;50.824;4.408;2022-08-11T14:55:54;5.60;;;2.92;;
21099;SDS011;10708;50.824;4.408;2022-08-11T15:01:15;4.22;;;3.00;;
21099;SDS011;10708;50.824;4.408;2022-08-11T15:06:35;3.35;;;3.00;;
21099;SDS011;10708;50.824;4.408;2022-08-11T15:11:38;5.88;;;3.45;;
21099;SDS011;10708;50.824;4.408;2022-08-11T15:17:00;6.45;;;3.08;;
21099;SDS011;10708;50.824;4.408;2022-08-11T15:22:09;3.72;;;3.00;;
21099;SDS011;10708;50.824;4.408;2022-08-11T15:27:29;5.28;;;3.05;;
21099;SDS011;10708;50.824;4.408;2022-08-11T15:32:53;4.20;;;3.55;;
21099;SDS011;10708;50.824;4.408;2022-08-11T15:38:14;6.30;;;3.25;;
21099;SDS011;10708;50.824;4.408;2022-08-11T15:43:21;4.63;;;3.17;;
21099;SDS011;10708;50.824;4.408;2022-08-11T15:48:55;4.13;;;3.47;;
21099;SDS011;10708;50.824;4.408;2022-08-11T15:54:02;7.60;;;3.53;;
21099;SDS011;10708;50.824;4.408;2022-08-11T15:59:09;5.57;;;3.38;;
21099;SDS011;10708;50.824;4.408;2022-08-11T16:04:33;5.93;;;3.15;;
21099;SDS011;10708;50.824;4.408;2022-08-11T16:09:39;4.18;;;3.10;;
21099;SDS011;10708;50.824;4.408;2022-08-11T16:14:45;7.85;;;3.22;;
21099;SDS011;10708;50.824;4.408;2022-08-11T16:20:11;6.03;;;3.33;;
21099;SDS011;10708;50.824;4.408;2022-08-11T16:25:16;5.15;;;3.15;;
21099;SDS011;10708;50.824;4.408;2022-08-11T16:30:23;5.00;;;2.90;;
21099;SDS011;10708;50.824;4.408;2022-08-11T16:35:29;3.75;;;2.90;;
21099;SDS011;10708;50.824;4.408;2022-08-11T16:40:52;5.43;;;3.25;;
21099;SDS011;10708;50.824;4.408;2022-08-11T16:45:55;3.90;;;3.05;;
21099;SDS011;10708;50.824;4.408;2022-08-11T16:51:33;7.47;;;2.70;;
21099;SDS011;10708;50.824;4.408;2022-08-11T16:56:36;9.30;;;3.28;;
21099;SDS011;10708;50.824;4.408;2022-08-11T17:01:43;5.43;;;3.00;;
21099;SDS011;10708;50.824;4.408;2022-08-11T17:06:50;3.92;;;2.80;;
21099;SDS011;10708;50.824;4.408;2022-08-11T17:12:11;3.50;;;3.20;;
21099;SDS011;10708;50.824;4.408;2022-08-11T17:17:33;7.90;;;3.08;;
21099;SDS011;10708;50.824;4.408;2022-08-11T17:22:40;7.40;;;3.00;;
21099;SDS011;10708;50.824;4.408;2022-08-11T17:28:01;6.70;;;2.70;;
21099;SDS011;10708;50.824;4.408;2022-08-11T17:33:04;5.95;;;2.67;;
21099;SDS011;10708;50.824;4.408;2022-08-11T17:38:25;5.97;;;3.30;;
21099;SDS011;10708;50.824;4.408;2022-08-11T17:43:29;7.57;;;2.80;;
21099;SDS011;10708;50.824;4.408;2022-08-11T17:48:50;6.75;;;2.70;;
21099;SDS011;10708;50.824;4.408;2022-08-11T17:53:53;7.70;;;2.90;;
21099;SDS011;10708;50.824;4.408;2022-08-11T17:59:13;6.35;;;3.20;;
21099;SDS011;10708;50.824;4.408;2022-08-11T18:04:34;3.92;;;3.15;;
21099;SDS011;10708;50.824;4.408;2022-08-11T18:09:39;4.68;;;2.83;;
21099;SDS011;10708;50.824;4.408;2022-08-11T18:14:58;9.60;;;3.28;;
21099;SDS011;10708;50.824;4.408;2022-08-11T18:20:18;3.92;;;3.10;;
21099;SDS011;10708;50.824;4.408;2022-08-11T18:25:41;5.93;;;3.03;;
21099;SDS011;10708;50.824;4.408;2022-08-11T18:31:03;5.00;;;3.30;;
21099;SDS011;10708;50.824;4.408;2022-08-11T18:36:27;6.35;;;3.05;;
21099;SDS011;10708;50.824;4.408;2022-08-11T18:41:51;5.97;;;3.33;;
21099;SDS011;10708;50.824;4.408;2022-08-11T18:47:12;4.10;;;3.58;;
21099;SDS011;10708;50.824;4.408;2022-08-11T18:52:34;7.22;;;3.28;;
21099;SDS011;10708;50.824;4.408;2022-08-11T18:57:57;9.90;;;3.83;;
21099;SDS011;10708;50.824;4.408;2022-08-11T19:03:21;3.88;;;3.45;;
21099;SDS011;10708;50.824;4.408;2022-08-11T19:08:45;5.60;;;3.58;;
21099;SDS011;10708;50.824;4.408;2022-08-11T19:14:12;5.22;;;3.33;;
21099;SDS011;10708;50.824;4.408;2022-08-11T19:19:34;4.38;;;3.60;;
21099;SDS011;10708;50.824;4.408;2022-08-11T19:24:57;8.73;;;3.70;;
21099;SDS011;10708;50.824;4.408;2022-08-11T19:30:19;5.97;;;4.10;;
21099;SDS011;10708;50.824;4.408;2022-08-11T19:35:40;5.28;;;3.75;;
21099;SDS011;10708;50.824;4.408;2022-08-11T19:41:00;5.90;;;3.85;;
21099;SDS011;10708;50.824;4.408;2022-08-11T19:46:22;5.93;;;3.83;;
21099;SDS011;10708;50.824;4.408;2022-08-11T19:51:43;4.30;;;3.90;;
21099;SDS011;10708;50.824;4.408;2022-08-11T19:57:04;8.40;;;3.70;;
21099;SDS011;10708;50.824;4.408;2022-08-11T20:02:25;7.95;;;3.95;;
21099;SDS011;10708;50.824;4.408;2022-08-11T20:07:46;5.22;;;3.80;;
21099;SDS011;10708;50.824;4.408;2022-08-11T20:13:07;7.68;;;4.28;;
21099;SDS011;10708;50.824;4.408;2022-08-11T20:18:31;7.97;;;4.53;;
21099;SDS011;10708;50.824;4.408;2022-08-11T20:23:51;8.95;;;4.22;;
21099;SDS011;10708;50.824;4.408;2022-08-11T20:29:13;6.22;;;3.70;;
21099;SDS011;10708;50.824;4.408;2022-08-11T20:34:34;6.60;;;4.00;;
21099;SDS011;10708;50.824;4.408;2022-08-11T20:39:55;9.98;;;3.70;;
21099;SDS011;10708;50.824;4.408;2022-08-11T20:45:20;10.60;;;5.03;;
21099;SDS011;10708;50.824;4.408;2022-08-11T20:50:43;9.00;;;4.70;;
21099;SDS011;10708;50.824;4.408;2022-08-11T20:56:05;5.60;;;4.25;;
21099;SDS011;10708;50.824;4.408;2022-08-11T21:01:26;7.47;;;4.07;;
21099;SDS011;10708;50.824;4.408;2022-08-11T21:06:47;7.47;;;4.60;;
21099;SDS011;10708;50.824;4.408;2022-08-11T21:12:10;10.23;;;5.03;;
21099;SDS011;10708;50.824;4.408;2022-08-11T21:17:34;7.60;;;4.28;;
21099;SDS011;10708;50.824;4.408;2022-08-11T21:22:57;7.10;;;4.63;;
21099;SDS011;10708;50.824;4.408;2022-08-11T21:28:19;9.60;;;4.75;;
21099;SDS011;10708;50.824;4.408;2022-08-11T21:33:40;7.90;;;4.90;;
21099;SDS011;10708;50.824;4.408;2022-08-11T21:39:02;9.38;;;4.60;;
21099;SDS011;10708;50.824;4.408;2022-08-11T21:44:23;7.18;;;4.93;;
21099;SDS011;10708;50.824;4.408;2022-08-11T21:49:44;8.48;;;4.80;;
21099;SDS011;10708;50.824;4.408;2022-08-11T21:55:08;7.07;;;5.38;;
21099;SDS011;10708;50.824;4.408;2022-08-11T22:00:29;7.93;;;4.68;;
21099;SDS011;10708;50.824;4.408;2022-08-11T22:05:49;11.30;;;4.95;;
21099;SDS011;10708;50.824;4.408;2022-08-11T22:11:10;7.07;;;4.63;;
21099;SDS011;10708;50.824;4.408;2022-08-11T22:16:32;10.60;;;5.07;;
21099;SDS011;10708;50.824;4.408;2022-08-11T22:21:52;8.07;;;4.60;;
21099;SDS011;10708;50.824;4.408;2022-08-11T22:27:15;10.32;;;4.90;;
21099;SDS011;10708;50.824;4.408;2022-08-11T22:32:35;12.48;;;5.22;;
21099;SDS011;10708;50.824;4.408;2022-08-11T22:37:56;9.65;;;4.70;;
21099;SDS011;10708;50.824;4.408;2022-08-11T22:43:19;10.88;;;4.95;;
21099;SDS011;10708;50.824;4.408;2022-08-11T22:48:39;6.28;;;4.63;;
21099;SDS011;10708;50.824;4.408;2022-08-11T22:54:01;8.18;;;4.50;;
21099;SDS011;10708;50.824;4.408;2022-08-11T22:59:22;8.00;;;4.97;;
21099;SDS011;10708;50.824;4.408;2022-08-11T23:04:43;8.48;;;5.13;;
21099;SDS011;10708;50.824;4.408;2022-08-11T23:10:04;9.48;;;5.15;;
21099;SDS011;10708;50.824;4.408;2022-08-11T23:15:27;11.52;;;5.45;;
21099;SDS011;10708;50.824;4.408;2022-08-11T23:20:47;8.63;;;4.85;;
21099;SDS011;10708;50.824;4.408;2022-08-11T23:26:07;19.45;;;5.57;;
21099;SDS011;10708;50.824;4.408;2022-08-11T23:31:29;9.75;;;5.40;;
21099;SDS011;10708;50.824;4.408;2022-08-11T23:36:52;10.48;;;4.97;;
21099;SDS011;10708;50.824;4.408;2022-08-11T23:42:13;11.15;;;5.20;;
21099;SDS011;10708;50.824;4.408;2022-08-11T23:47:34;12.00;;;4.72;;
21099;SDS011;10708;50.824;4.408;2022-08-11T23:52:56;8.43;;;4.63;;
21099;SDS011;10708;50.824;4.408;2022-08-11T23:58:17;7.80;;;4.82;;
